sensor_id;sensor_type;location;lat;lon;timestamp;pressure;altitude;pressure_sealevel;temperature;humidity
58070;BME280;43863;52.256;21.048;2022-09-14T00:01:34;99472.91;;;17.16;82.31
58070;BME280;43863;52.256;21.048;2022-09-14T00:04:14;99473.06;;;17.10;82.13
58070;BME280;43863;52.256;21.048;2022-09-14T00:06:43;99478.88;;;17.06;82.33
58070;BME280;43863;52.256;21.048;2022-09-14T00:09:20;99473.28;;;17.08;82.00
58070;BME280;43863;52.256;21.048;2022-09-14T00:11:49;99472.72;;;17.06;82.15
58070;BME280;43863;52.256;21.048;2022-09-14T00:14:18;99462.78;;;17.06;81.75
58070;BME280;43863;52.256;21.048;2022-09-14T00:16:46;99466.06;;;17.09;81.34
58070;BME280;43863;52.256;21.048;2022-09-14T00:19:20;99463.63;;;17.07;80.91
58070;BME280;43863;52.256;21.048;2022-09-14T00:21:50;99469.31;;;17.11;80.89
58070;BME280;43863;52.256;21.048;2022-09-14T00:24:19;99474.84;;;17.04;80.02
58070;BME280;43863;52.256;21.048;2022-09-14T00:26:47;99471.47;;;16.97;79.45
58070;BME280;43863;52.256;21.048;2022-09-14T00:29:16;99458.22;;;16.90;79.23
58070;BME280;43863;52.256;21.048;2022-09-14T00:31:44;99464.53;;;16.84;79.16
58070;BME280;43863;52.256;21.048;2022-09-14T00:34:13;99465.25;;;16.79;78.88
58070;BME280;43863;52.256;21.048;2022-09-14T00:36:46;99463.84;;;16.77;78.87
58070;BME280;43863;52.256;21.048;2022-09-14T00:39:16;99457.44;;;16.78;78.89
58070;BME280;43863;52.256;21.048;2022-09-14T00:41:46;99454.50;;;16.79;78.87
58070;BME280;43863;52.256;21.048;2022-09-14T00:46:44;99458.34;;;16.83;78.48
58070;BME280;43863;52.256;21.048;2022-09-14T00:49:16;99459.16;;;16.84;78.45
58070;BME280;43863;52.256;21.048;2022-09-14T00:51:50;99451.59;;;16.81;78.40
58070;BME280;43863;52.256;21.048;2022-09-14T00:54:19;99459.88;;;16.79;78.30
58070;BME280;43863;52.256;21.048;2022-09-14T00:56:47;99460.69;;;16.80;78.61
58070;BME280;43863;52.256;21.048;2022-09-14T00:59:24;99468.97;;;16.78;78.27
58070;BME280;43863;52.256;21.048;2022-09-14T01:01:53;99473.19;;;16.74;78.50
58070;BME280;43863;52.256;21.048;2022-09-14T01:04:22;99466.16;;;16.73;78.19
58070;BME280;43863;52.256;21.048;2022-09-14T01:15:20;99475.03;;;16.74;78.51
58070;BME280;43863;52.256;21.048;2022-09-14T01:21:19;99468.84;;;16.85;78.38
58070;BME280;43863;52.256;21.048;2022-09-14T01:24:14;99463.63;;;16.78;78.32
58070;BME280;43863;52.256;21.048;2022-09-14T01:29:29;99468.16;;;16.78;78.31
58070;BME280;43863;52.256;21.048;2022-09-14T01:38:04;99454.03;;;16.82;78.30
58070;BME280;43863;52.256;21.048;2022-09-14T01:40:44;99454.28;;;16.81;78.56
58070;BME280;43863;52.256;21.048;2022-09-14T01:43:17;99439.81;;;16.82;78.07
58070;BME280;43863;52.256;21.048;2022-09-14T01:46:00;99435.63;;;16.86;78.14
58070;BME280;43863;52.256;21.048;2022-09-14T01:51:49;99436.09;;;16.83;77.90
58070;BME280;43863;52.256;21.048;2022-09-14T01:54:29;99440.88;;;16.81;77.53
58070;BME280;43863;52.256;21.048;2022-09-14T01:57:06;99433.31;;;16.78;77.60
58070;BME280;43863;52.256;21.048;2022-09-14T01:59:38;99438.91;;;16.76;78.14
58070;BME280;43863;52.256;21.048;2022-09-14T02:02:37;99430.84;;;16.76;78.34
58070;BME280;43863;52.256;21.048;2022-09-14T02:05:14;99431.88;;;16.75;78.09
58070;BME280;43863;52.256;21.048;2022-09-14T02:07:44;99435.41;;;16.76;78.14
58070;BME280;43863;52.256;21.048;2022-09-14T02:10:14;99428.75;;;16.78;78.11
58070;BME280;43863;52.256;21.048;2022-09-14T02:12:43;99431.44;;;16.78;78.23
58070;BME280;43863;52.256;21.048;2022-09-14T02:15:13;99421.50;;;16.79;78.78
58070;BME280;43863;52.256;21.048;2022-09-14T02:17:42;99425.81;;;16.80;78.64
58070;BME280;43863;52.256;21.048;2022-09-14T02:20:18;99429.66;;;16.84;78.59
58070;BME280;43863;52.256;21.048;2022-09-14T02:22:49;99427.22;;;16.82;78.57
58070;BME280;43863;52.256;21.048;2022-09-14T02:25:19;99429.19;;;16.87;78.65
58070;BME280;43863;52.256;21.048;2022-09-14T02:27:47;99431.06;;;16.87;78.24
58070;BME280;43863;52.256;21.048;2022-09-14T02:30:15;99424.41;;;16.89;78.48
58070;BME280;43863;52.256;21.048;2022-09-14T02:35:22;99427.09;;;16.89;78.34
58070;BME280;43863;52.256;21.048;2022-09-14T02:38:01;99434.28;;;16.89;78.26
58070;BME280;43863;52.256;21.048;2022-09-14T02:40:35;99433.47;;;16.88;78.31
58070;BME280;43863;52.256;21.048;2022-09-14T02:49:01;99431.13;;;16.92;78.24
58070;BME280;43863;52.256;21.048;2022-09-14T02:51:51;99430.09;;;16.93;78.60
58070;BME280;43863;52.256;21.048;2022-09-14T02:54:31;99436.38;;;16.98;78.38
58070;BME280;43863;52.256;21.048;2022-09-14T02:57:02;99429.34;;;16.97;78.41
58070;BME280;43863;52.256;21.048;2022-09-14T02:59:30;99431.56;;;17.00;78.10
58070;BME280;43863;52.256;21.048;2022-09-14T03:01:59;99437.59;;;17.08;78.07
58070;BME280;43863;52.256;21.048;2022-09-14T03:04:27;99431.44;;;17.07;78.02
58070;BME280;43863;52.256;21.048;2022-09-14T03:06:55;99434.34;;;17.05;78.31
58070;BME280;43863;52.256;21.048;2022-09-14T03:09:23;99426.63;;;17.09;78.30
58070;BME280;43863;52.256;21.048;2022-09-14T03:11:50;99430.69;;;17.12;78.01
58070;BME280;43863;52.256;21.048;2022-09-14T03:14:19;99434.75;;;17.14;78.17
58070;BME280;43863;52.256;21.048;2022-09-14T03:16:47;99429.66;;;17.13;77.83
58070;BME280;43863;52.256;21.048;2022-09-14T03:19:14;99434.75;;;17.14;77.75
58070;BME280;43863;52.256;21.048;2022-09-14T03:21:43;99432.19;;;17.19;77.50
58070;BME280;43863;52.256;21.048;2022-09-14T03:24:10;99429.22;;;17.21;77.49
58070;BME280;43863;52.256;21.048;2022-09-14T03:26:38;99433.78;;;17.20;77.42
58070;BME280;43863;52.256;21.048;2022-09-14T03:29:06;99431.28;;;17.14;77.71
58070;BME280;43863;52.256;21.048;2022-09-14T03:31:33;99427.78;;;17.13;77.53
58070;BME280;43863;52.256;21.048;2022-09-14T03:34:01;99419.63;;;17.08;77.45
58070;BME280;43863;52.256;21.048;2022-09-14T03:36:30;99425.81;;;17.09;77.32
58070;BME280;43863;52.256;21.048;2022-09-14T03:38:58;99423.38;;;17.07;77.50
58070;BME280;43863;52.256;21.048;2022-09-14T03:41:28;99418.81;;;17.08;77.37
58070;BME280;43863;52.256;21.048;2022-09-14T03:43:56;99417.44;;;17.05;77.42
58070;BME280;43863;52.256;21.048;2022-09-14T03:46:24;99411.47;;;17.03;77.48
58070;BME280;43863;52.256;21.048;2022-09-14T03:48:53;99414.97;;;17.03;77.19
58070;BME280;43863;52.256;21.048;2022-09-14T03:51:21;99400.19;;;17.01;77.26
58070;BME280;43863;52.256;21.048;2022-09-14T03:53:49;99391.56;;;16.99;77.34
58070;BME280;43863;52.256;21.048;2022-09-14T03:56:18;99411.97;;;17.00;77.31
58070;BME280;43863;52.256;21.048;2022-09-14T03:58:47;99414.66;;;17.00;77.52
58070;BME280;43863;52.256;21.048;2022-09-14T04:01:18;99413.34;;;17.02;77.25
58070;BME280;43863;52.256;21.048;2022-09-14T04:03:47;99417.91;;;17.02;77.29
58070;BME280;43863;52.256;21.048;2022-09-14T04:06:18;99417.91;;;17.02;77.18
58070;BME280;43863;52.256;21.048;2022-09-14T04:08:46;99414.66;;;17.00;77.13
58070;BME280;43863;52.256;21.048;2022-09-14T04:11:20;99411.97;;;17.00;77.16
58070;BME280;43863;52.256;21.048;2022-09-14T04:13:49;99417.00;;;16.96;77.06
58070;BME280;43863;52.256;21.048;2022-09-14T04:16:18;99414.09;;;16.98;76.87
58070;BME280;43863;52.256;21.048;2022-09-14T04:18:47;99415.72;;;16.99;76.74
58070;BME280;43863;52.256;21.048;2022-09-14T04:21:19;99407.66;;;16.99;76.61
58070;BME280;43863;52.256;21.048;2022-09-14T04:23:48;99414.09;;;16.98;76.55
58070;BME280;43863;52.256;21.048;2022-09-14T04:26:38;99412.78;;;17.00;76.37
58070;BME280;43863;52.256;21.048;2022-09-14T04:29:06;99406.94;;;17.03;76.25
58070;BME280;43863;52.256;21.048;2022-09-14T04:31:35;99407.75;;;17.04;76.04
58070;BME280;43863;52.256;21.048;2022-09-14T04:34:03;99407.28;;;17.07;76.03
58070;BME280;43863;52.256;21.048;2022-09-14T04:36:31;99398.97;;;17.09;76.15
58070;BME280;43863;52.256;21.048;2022-09-14T04:39:01;99395.81;;;17.12;75.98
58070;BME280;43863;52.256;21.048;2022-09-14T04:41:30;99403.63;;;17.13;75.88
58070;BME280;43863;52.256;21.048;2022-09-14T04:43:59;99397.03;;;17.21;76.00
58070;BME280;43863;52.256;21.048;2022-09-14T04:46:30;99399.81;;;17.26;75.93
58070;BME280;43863;52.256;21.048;2022-09-14T04:48:59;99406.31;;;17.30;75.68
58070;BME280;43863;52.256;21.048;2022-09-14T04:51:29;99406.16;;;17.37;75.52
58070;BME280;43863;52.256;21.048;2022-09-14T04:53:57;99404.28;;;17.37;75.40
58070;BME280;43863;52.256;21.048;2022-09-14T04:56:27;99400.31;;;17.40;75.20
58070;BME280;43863;52.256;21.048;2022-09-14T04:58:57;99398.16;;;17.42;74.73
58070;BME280;43863;52.256;21.048;2022-09-14T05:01:27;99405.72;;;17.45;74.81
58070;BME280;43863;52.256;21.048;2022-09-14T05:03:55;99405.72;;;17.45;74.63
58070;BME280;43863;52.256;21.048;2022-09-14T05:06:27;99408.50;;;17.50;74.80
58070;BME280;43863;52.256;21.048;2022-09-14T05:08:56;99414.44;;;17.52;74.57
58070;BME280;43863;52.256;21.048;2022-09-14T05:11:28;99410.53;;;17.60;74.38
58070;BME280;43863;52.256;21.048;2022-09-14T05:13:58;99413.88;;;17.67;74.24
58070;BME280;43863;52.256;21.048;2022-09-14T05:16:31;99414.75;;;17.72;73.95
58070;BME280;43863;52.256;21.048;2022-09-14T05:19:02;99409.72;;;17.76;73.70
58070;BME280;43863;52.256;21.048;2022-09-14T05:21:33;99413.53;;;17.80;73.83
58070;BME280;43863;52.256;21.048;2022-09-14T05:24:05;99411.75;;;17.86;73.40
58070;BME280;43863;52.256;21.048;2022-09-14T05:26:35;99417.19;;;17.91;73.03
58070;BME280;43863;52.256;21.048;2022-09-14T05:29:03;99412.72;;;17.96;72.93
58070;BME280;43863;52.256;21.048;2022-09-14T05:31:31;99410.09;;;18.02;72.81
58070;BME280;43863;52.256;21.048;2022-09-14T05:33:59;99398.84;;;18.05;72.46
58070;BME280;43863;52.256;21.048;2022-09-14T05:36:27;99398.59;;;18.06;72.67
58070;BME280;43863;52.256;21.048;2022-09-14T05:38:55;99406.47;;;18.13;72.52
58070;BME280;43863;52.256;21.048;2022-09-14T05:41:24;99403.53;;;18.14;72.35
58070;BME280;43863;52.256;21.048;2022-09-14T05:43:52;99413.00;;;18.17;72.06
58070;BME280;43863;52.256;21.048;2022-09-14T05:46:19;99407.69;;;18.22;72.14
58070;BME280;43863;52.256;21.048;2022-09-14T05:48:47;99414.28;;;18.36;72.17
58070;BME280;43863;52.256;21.048;2022-09-14T05:51:20;99408.28;;;18.51;72.04
58070;BME280;43863;52.256;21.048;2022-09-14T05:53:50;99409.97;;;18.57;71.89
58070;BME280;43863;52.256;21.048;2022-09-14T05:56:19;99404.66;;;18.62;71.90
58070;BME280;43863;52.256;21.048;2022-09-14T05:58:48;99407.13;;;18.69;71.56
58070;BME280;43863;52.256;21.048;2022-09-14T06:01:22;99403.72;;;18.74;71.38
58070;BME280;43863;52.256;21.048;2022-09-14T06:03:55;99404.03;;;18.77;71.00
58070;BME280;43863;52.256;21.048;2022-09-14T06:06:23;99400.53;;;18.77;71.17
58070;BME280;43863;52.256;21.048;2022-09-14T06:08:52;99400.38;;;18.89;71.17
58070;BME280;43863;52.256;21.048;2022-09-14T06:11:24;99405.84;;;18.99;71.13
58070;BME280;43863;52.256;21.048;2022-09-14T06:13:53;99410.94;;;18.95;70.67
58070;BME280;43863;52.256;21.048;2022-09-14T06:16:22;99404.94;;;18.88;71.30
58070;BME280;43863;52.256;21.048;2022-09-14T06:18:51;99400.06;;;18.85;71.09
58070;BME280;43863;52.256;21.048;2022-09-14T06:21:21;99409.69;;;18.76;70.86
58070;BME280;43863;52.256;21.048;2022-09-14T06:23:49;99412.22;;;18.65;71.37
58070;BME280;43863;52.256;21.048;2022-09-14T06:26:17;99404.91;;;18.61;71.61
58070;BME280;43863;52.256;21.048;2022-09-14T06:28:45;99418.53;;;18.54;71.42
58070;BME280;43863;52.256;21.048;2022-09-14T06:31:14;99418.00;;;18.52;71.44
58070;BME280;43863;52.256;21.048;2022-09-14T06:33:45;99409.94;;;18.52;71.72
58070;BME280;43863;52.256;21.048;2022-09-14T06:36:16;99424.19;;;18.53;71.35
58070;BME280;43863;52.256;21.048;2022-09-14T06:38:47;99429.63;;;18.36;71.68
58070;BME280;43863;52.256;21.048;2022-09-14T06:41:20;99425.53;;;18.33;72.20
58070;BME280;43863;52.256;21.048;2022-09-14T06:43:49;99431.00;;;18.38;71.69
58070;BME280;43863;52.256;21.048;2022-09-14T06:46:26;99425.69;;;18.44;71.39
58070;BME280;43863;52.256;21.048;2022-09-14T06:49:00;99429.41;;;18.42;71.21
58070;BME280;43863;52.256;21.048;2022-09-14T06:51:30;99435.78;;;18.36;71.33
58070;BME280;43863;52.256;21.048;2022-09-14T06:54:00;99434.09;;;18.30;71.47
58070;BME280;43863;52.256;21.048;2022-09-14T06:56:31;99443.63;;;18.38;71.24
58070;BME280;43863;52.256;21.048;2022-09-14T06:58:59;99430.91;;;18.33;71.29
58070;BME280;43863;52.256;21.048;2022-09-14T07:01:27;99441.94;;;18.32;71.38
58070;BME280;43863;52.256;21.048;2022-09-14T07:03:56;99449.81;;;18.38;70.77
58070;BME280;43863;52.256;21.048;2022-09-14T07:06:29;99446.13;;;18.45;70.71
58070;BME280;43863;52.256;21.048;2022-09-14T07:08:58;99449.69;;;18.50;70.32
58070;BME280;43863;52.256;21.048;2022-09-14T07:11:26;99450.00;;;18.54;69.98
58070;BME280;43863;52.256;21.048;2022-09-14T07:13:56;99451.38;;;18.56;70.07
58070;BME280;43863;52.256;21.048;2022-09-14T07:16:28;99457.44;;;18.69;69.72
58070;BME280;43863;52.256;21.048;2022-09-14T07:18:59;99453.19;;;18.73;69.50
58070;BME280;43863;52.256;21.048;2022-09-14T07:21:29;99467.06;;;18.86;69.08
58070;BME280;43863;52.256;21.048;2022-09-14T07:24:01;99461.38;;;19.05;68.54
58070;BME280;43863;52.256;21.048;2022-09-14T07:26:36;99463.59;;;19.13;68.48
58070;BME280;43863;52.256;21.048;2022-09-14T07:29:15;99468.63;;;19.04;68.39
58070;BME280;43863;52.256;21.048;2022-09-14T07:31:48;99459.00;;;19.14;68.21
58070;BME280;43863;52.256;21.048;2022-09-14T07:34:17;99461.81;;;19.24;67.90
58070;BME280;43863;52.256;21.048;2022-09-14T07:36:45;99461.91;;;19.34;67.67
58070;BME280;43863;52.256;21.048;2022-09-14T07:39:15;99461.03;;;19.61;67.11
58070;BME280;43863;52.256;21.048;2022-09-14T07:41:43;99455.03;;;19.81;66.99
58070;BME280;43863;52.256;21.048;2022-09-14T07:44:38;99461.41;;;20.07;65.98
58070;BME280;43863;52.256;21.048;2022-09-14T07:47:05;99449.31;;;20.14;65.46
58070;BME280;43863;52.256;21.048;2022-09-14T07:49:33;99449.94;;;20.32;64.71
58070;BME280;43863;52.256;21.048;2022-09-14T07:52:01;99454.59;;;20.52;64.04
58070;BME280;43863;52.256;21.048;2022-09-14T07:54:29;99447.19;;;20.74;63.20
58070;BME280;43863;52.256;21.048;2022-09-14T07:56:57;99450.38;;;20.66;62.86
58070;BME280;43863;52.256;21.048;2022-09-14T07:59:24;99450.41;;;20.76;62.39
58070;BME280;43863;52.256;21.048;2022-09-14T08:02:09;99443.94;;;20.77;61.94
58070;BME280;43863;52.256;21.048;2022-09-14T08:04:37;99445.84;;;20.77;61.43
58070;BME280;43863;52.256;21.048;2022-09-14T08:07:06;99458.78;;;20.75;60.93
58070;BME280;43863;52.256;21.048;2022-09-14T08:09:34;99458.78;;;20.80;60.43
58070;BME280;43863;52.256;21.048;2022-09-14T08:12:02;99459.31;;;20.82;60.35
58070;BME280;43863;52.256;21.048;2022-09-14T08:14:30;99464.22;;;20.95;59.50
58070;BME280;43863;52.256;21.048;2022-09-14T08:16:58;99457.47;;;21.03;58.90
58070;BME280;43863;52.256;21.048;2022-09-14T08:19:27;99453.44;;;21.05;58.94
58070;BME280;43863;52.256;21.048;2022-09-14T08:21:55;99452.13;;;21.13;58.78
58070;BME280;43863;52.256;21.048;2022-09-14T08:24:22;99457.50;;;21.13;58.77
58070;BME280;43863;52.256;21.048;2022-09-14T08:26:52;99455.13;;;21.27;58.16
58070;BME280;43863;52.256;21.048;2022-09-14T08:29:20;99459.41;;;21.23;58.11
58070;BME280;43863;52.256;21.048;2022-09-14T08:31:48;99441.34;;;21.33;58.12
58070;BME280;43863;52.256;21.048;2022-09-14T08:34:18;99453.53;;;21.36;57.43
58070;BME280;43863;52.256;21.048;2022-09-14T08:36:46;99463.75;;;21.34;57.76
58070;BME280;43863;52.256;21.048;2022-09-14T08:39:15;99460.00;;;21.61;56.89
58070;BME280;43863;52.256;21.048;2022-09-14T08:44:50;99444.56;;;21.76;56.10
58070;BME280;43863;52.256;21.048;2022-09-14T08:47:30;99454.59;;;21.81;55.68
58070;BME280;43863;52.256;21.048;2022-09-14T08:50:19;99461.34;;;21.78;55.30
58070;BME280;43863;52.256;21.048;2022-09-14T08:52:51;99454.84;;;21.79;55.40
58070;BME280;43863;52.256;21.048;2022-09-14T08:55:29;99457.53;;;21.90;55.42
58070;BME280;43863;52.256;21.048;2022-09-14T09:01:01;99451.34;;;21.79;55.28
58070;BME280;43863;52.256;21.048;2022-09-14T09:09:52;99433.59;;;22.48;53.89
58070;BME280;43863;52.256;21.048;2022-09-14T09:12:36;99445.84;;;22.90;53.52
58070;BME280;43863;52.256;21.048;2022-09-14T09:15:39;99439.19;;;23.16;52.27
58070;BME280;43863;52.256;21.048;2022-09-14T09:18:35;99431.66;;;23.08;51.46
58070;BME280;43863;52.256;21.048;2022-09-14T09:21:27;99431.84;;;22.78;50.43
58070;BME280;43863;52.256;21.048;2022-09-14T09:24:13;99432.53;;;22.39;51.26
58070;BME280;43863;52.256;21.048;2022-09-14T09:26:44;99447.47;;;22.26;51.72
58070;BME280;43863;52.256;21.048;2022-09-14T09:29:12;99438.03;;;22.08;52.21
58070;BME280;43863;52.256;21.048;2022-09-14T09:31:59;99434.28;;;21.89;52.76
58070;BME280;43863;52.256;21.048;2022-09-14T09:34:45;99439.13;;;21.97;53.28
58070;BME280;43863;52.256;21.048;2022-09-14T09:37:25;99443.19;;;22.10;53.09
58070;BME280;43863;52.256;21.048;2022-09-14T09:39:53;99433.16;;;22.10;52.79
58070;BME280;43863;52.256;21.048;2022-09-14T09:42:23;99435.59;;;22.22;52.74
58070;BME280;43863;52.256;21.048;2022-09-14T09:44:56;99438.03;;;22.18;52.78
58070;BME280;43863;52.256;21.048;2022-09-14T09:47:37;99436.94;;;22.09;53.19
58070;BME280;43863;52.256;21.048;2022-09-14T09:50:15;99431.53;;;22.14;53.40
58070;BME280;43863;52.256;21.048;2022-09-14T09:52:52;99439.91;;;22.23;52.90
58070;BME280;43863;52.256;21.048;2022-09-14T09:55:22;99440.44;;;22.25;52.68
58070;BME280;43863;52.256;21.048;2022-09-14T09:57:53;99434.50;;;22.18;52.77
58070;BME280;43863;52.256;21.048;2022-09-14T10:02:50;99440.22;;;21.96;52.89
58070;BME280;43863;52.256;21.048;2022-09-14T10:05:26;99437.22;;;22.08;52.49
58070;BME280;43863;52.256;21.048;2022-09-14T10:08:03;99433.22;;;21.85;52.29
58070;BME280;43863;52.256;21.048;2022-09-14T10:10:41;99424.59;;;21.52;52.02
58070;BME280;43863;52.256;21.048;2022-09-14T10:13:32;99436.44;;;21.20;51.71
58070;BME280;43863;52.256;21.048;2022-09-14T10:16:15;99443.94;;;20.77;53.01
58070;BME280;43863;52.256;21.048;2022-09-14T10:18:46;99437.44;;;20.68;53.84
58070;BME280;43863;52.256;21.048;2022-09-14T10:21:17;99443.09;;;20.66;53.46
58070;BME280;43863;52.256;21.048;2022-09-14T10:23:46;99441.78;;;20.74;53.30
58070;BME280;43863;52.256;21.048;2022-09-14T10:26:32;99449.63;;;20.91;52.60
58070;BME280;43863;52.256;21.048;2022-09-14T10:29:31;99446.94;;;20.96;52.62
58070;BME280;43863;52.256;21.048;2022-09-14T10:32:08;99440.25;;;21.19;52.89
58070;BME280;43863;52.256;21.048;2022-09-14T10:34:39;99441.63;;;21.52;52.49
58070;BME280;43863;52.256;21.048;2022-09-14T10:37:15;99436.72;;;21.85;51.35
58070;BME280;43863;52.256;21.048;2022-09-14T10:40:18;99446.69;;;22.20;50.90
58070;BME280;43863;52.256;21.048;2022-09-14T10:45:41;99432.69;;;22.68;50.00
58070;BME280;43863;52.256;21.048;2022-09-14T10:48:21;99436.31;;;22.48;48.76
58070;BME280;43863;52.256;21.048;2022-09-14T10:53:40;99439.38;;;22.00;49.83
58070;BME280;43863;52.256;21.048;2022-09-14T11:04:43;99440.88;;;22.53;49.67
58070;BME280;43863;52.256;21.048;2022-09-14T11:07:43;99438.19;;;22.47;49.93
58070;BME280;43863;52.256;21.048;2022-09-14T11:13:34;99439.28;;;22.52;49.75
58070;BME280;43863;52.256;21.048;2022-09-14T11:26:49;99446.38;;;22.32;47.14
58070;BME280;43863;52.256;21.048;2022-09-14T11:29:31;99445.75;;;22.51;46.87
58070;BME280;43863;52.256;21.048;2022-09-14T11:37:40;99430.44;;;22.25;47.24
58070;BME280;43863;52.256;21.048;2022-09-14T11:40:23;99436.88;;;22.40;47.30
58070;BME280;43863;52.256;21.048;2022-09-14T11:44:12;99418.19;;;22.48;47.23
58070;BME280;43863;52.256;21.048;2022-09-14T11:46:46;99431.50;;;22.30;47.35
58070;BME280;43863;52.256;21.048;2022-09-14T11:52:15;99413.66;;;22.23;47.68
58070;BME280;43863;52.256;21.048;2022-09-14T11:54:44;99414.78;;;22.17;47.34
58070;BME280;43863;52.256;21.048;2022-09-14T11:57:24;99415.84;;;22.21;47.70
58070;BME280;43863;52.256;21.048;2022-09-14T12:03:12;99424.72;;;22.37;46.80
58070;BME280;43863;52.256;21.048;2022-09-14T12:05:41;99427.72;;;22.31;46.44
58070;BME280;43863;52.256;21.048;2022-09-14T12:11:22;99426.66;;;22.16;46.28
58070;BME280;43863;52.256;21.048;2022-09-14T12:22:48;99411.59;;;21.85;46.11
58070;BME280;43863;52.256;21.048;2022-09-14T12:25:21;99417.53;;;21.76;46.14
58070;BME280;43863;52.256;21.048;2022-09-14T12:27:52;99412.13;;;21.81;46.75
58070;BME280;43863;52.256;21.048;2022-09-14T12:36:10;99400.59;;;22.41;45.56
58070;BME280;43863;52.256;21.048;2022-09-14T12:39:18;99404.34;;;22.50;45.35
58070;BME280;43863;52.256;21.048;2022-09-14T12:44:32;99403.53;;;22.49;44.30
58070;BME280;43863;52.256;21.048;2022-09-14T12:50:19;99410.78;;;22.59;44.16
58070;BME280;43863;52.256;21.048;2022-09-14T12:55:51;99405.69;;;22.58;43.92
58070;BME280;43863;52.256;21.048;2022-09-14T12:58:47;99398.38;;;22.58;43.88
58070;BME280;43863;52.256;21.048;2022-09-14T13:01:56;99396.19;;;22.60;44.03
58070;BME280;43863;52.256;21.048;2022-09-14T13:04:32;99398.84;;;22.65;44.10
58070;BME280;43863;52.256;21.048;2022-09-14T13:07:04;99396.34;;;22.79;43.88
58070;BME280;43863;52.256;21.048;2022-09-14T13:09:33;99397.91;;;22.90;44.19
58070;BME280;43863;52.256;21.048;2022-09-14T13:12:04;99401.13;;;22.98;44.09
58070;BME280;43863;52.256;21.048;2022-09-14T13:14:52;99398.63;;;23.06;44.11
58070;BME280;43863;52.256;21.048;2022-09-14T13:17:22;99405.13;;;23.05;43.92
58070;BME280;43863;52.256;21.048;2022-09-14T13:19:58;99394.63;;;22.99;43.52
58070;BME280;43863;52.256;21.048;2022-09-14T13:22:29;99393.44;;;23.10;43.62
58070;BME280;43863;52.256;21.048;2022-09-14T13:24:59;99390.66;;;23.20;43.38
58070;BME280;43863;52.256;21.048;2022-09-14T13:27:33;99394.66;;;23.28;42.83
58070;BME280;43863;52.256;21.048;2022-09-14T13:32:41;99394.13;;;23.31;42.53
58070;BME280;43863;52.256;21.048;2022-09-14T13:35:17;99390.56;;;23.30;42.39
58070;BME280;43863;52.256;21.048;2022-09-14T13:37:47;99390.09;;;23.23;42.40
58070;BME280;43863;52.256;21.048;2022-09-14T13:40:15;99376.88;;;23.16;42.55
58070;BME280;43863;52.256;21.048;2022-09-14T13:42:49;99372.28;;;23.17;42.74
58070;BME280;43863;52.256;21.048;2022-09-14T13:45:17;99366.84;;;23.17;42.38
58070;BME280;43863;52.256;21.048;2022-09-14T13:47:45;99370.09;;;23.19;42.05
58070;BME280;43863;52.256;21.048;2022-09-14T13:50:14;99376.59;;;23.18;42.04
58070;BME280;43863;52.256;21.048;2022-09-14T13:52:42;99372.09;;;23.03;41.92
58070;BME280;43863;52.256;21.048;2022-09-14T14:00:59;99370.66;;;22.71;42.66
58070;BME280;43863;52.256;21.048;2022-09-14T14:03:40;99367.16;;;22.71;42.55
58070;BME280;43863;52.256;21.048;2022-09-14T14:06:35;99360.16;;;22.65;42.62
58070;BME280;43863;52.256;21.048;2022-09-14T14:09:06;99368.31;;;22.60;42.89
58070;BME280;43863;52.256;21.048;2022-09-14T14:11:40;99359.81;;;22.71;43.33
58070;BME280;43863;52.256;21.048;2022-09-14T14:19:53;99356.63;;;22.64;43.33
58070;BME280;43863;52.256;21.048;2022-09-14T14:22:31;99355.03;;;22.63;43.90
58070;BME280;43863;52.256;21.048;2022-09-14T14:24:59;99360.22;;;22.55;43.91
58070;BME280;43863;52.256;21.048;2022-09-14T14:27:45;99345.13;;;22.43;43.87
58070;BME280;43863;52.256;21.048;2022-09-14T14:30:19;99357.84;;;22.43;44.03
58070;BME280;43863;52.256;21.048;2022-09-14T14:32:51;99356.81;;;22.34;44.40
58070;BME280;43863;52.256;21.048;2022-09-14T14:35:25;99347.59;;;22.35;44.50
58070;BME280;43863;52.256;21.048;2022-09-14T14:37:54;99352.47;;;22.38;44.40
58070;BME280;43863;52.256;21.048;2022-09-14T14:40:22;99352.19;;;22.39;44.39
58070;BME280;43863;52.256;21.048;2022-09-14T14:42:52;99355.94;;;22.48;44.43
58070;BME280;43863;52.256;21.048;2022-09-14T14:45:22;99352.63;;;22.57;44.59
58070;BME280;43863;52.256;21.048;2022-09-14T14:47:54;99356.66;;;22.59;44.83
58070;BME280;43863;52.256;21.048;2022-09-14T14:50:27;99355.84;;;22.59;44.64
58070;BME280;43863;52.256;21.048;2022-09-14T14:52:55;99354.56;;;22.51;44.61
58070;BME280;43863;52.256;21.048;2022-09-14T14:55:24;99349.19;;;22.46;45.02
58070;BME280;43863;52.256;21.048;2022-09-14T14:57:57;99354.59;;;22.46;45.02
58070;BME280;43863;52.256;21.048;2022-09-14T15:00:30;99347.84;;;22.43;45.05
58070;BME280;43863;52.256;21.048;2022-09-14T15:02:58;99344.09;;;22.34;44.91
58070;BME280;43863;52.256;21.048;2022-09-14T15:05:26;99346.81;;;22.29;44.82
58070;BME280;43863;52.256;21.048;2022-09-14T15:07:54;99345.25;;;22.13;45.19
58070;BME280;43863;52.256;21.048;2022-09-14T15:10:24;99341.47;;;22.09;45.27
58070;BME280;43863;52.256;21.048;2022-09-14T15:12:53;99342.28;;;22.09;45.18
58070;BME280;43863;52.256;21.048;2022-09-14T15:15:23;99338.22;;;22.12;44.83
58070;BME280;43863;52.256;21.048;2022-09-14T15:17:52;99333.91;;;22.06;44.96
58070;BME280;43863;52.256;21.048;2022-09-14T15:20:20;99330.66;;;22.03;44.98
58070;BME280;43863;52.256;21.048;2022-09-14T15:22:49;99331.22;;;22.00;45.41
58070;BME280;43863;52.256;21.048;2022-09-14T15:25:19;99332.31;;;21.99;45.21
58070;BME280;43863;52.256;21.048;2022-09-14T15:27:47;99326.09;;;21.99;45.42
58070;BME280;43863;52.256;21.048;2022-09-14T15:30:15;99321.00;;;21.92;45.50